createdAt,value
2023-11-18T00:02:02.713Z,7.25
2023-11-18T00:04:29.698Z,7.21
2023-11-18T00:06:58.547Z,7.11
2023-11-18T00:09:26.150Z,7.10
2023-11-18T00:11:53.360Z,7.06
2023-11-18T00:14:22.010Z,7.07
2023-11-18T00:16:49.086Z,7.08
2023-11-18T00:19:16.065Z,7.10
2023-11-18T00:21:43.948Z,7.13
2023-11-18T00:24:11.010Z,7.10
2023-11-18T00:26:38.060Z,7.01
2023-11-18T00:29:05.513Z,6.99
2023-11-18T00:31:32.579Z,6.95
2023-11-18T00:33:59.612Z,6.93
2023-11-18T00:36:26.661Z,6.90
2023-11-18T00:38:53.579Z,6.90
2023-11-18T00:41:20.919Z,6.90
2023-11-18T00:43:47.813Z,6.93
2023-11-18T00:46:14.828Z,6.96
2023-11-18T00:48:41.892Z,6.95
2023-11-18T00:51:08.933Z,6.96
2023-11-18T00:53:35.786Z,6.93
2023-11-18T00:56:03.081Z,6.87
2023-11-18T00:58:30.312Z,6.80
2023-11-18T01:00:57.286Z,6.71
2023-11-18T01:03:24.414Z,6.77
2023-11-18T01:05:52.097Z,6.79
2023-11-18T01:08:19.659Z,6.86
2023-11-18T01:10:46.629Z,6.90
2023-11-18T01:13:13.575Z,6.89
2023-11-18T01:15:40.918Z,6.87
2023-11-18T01:18:08.133Z,6.85
2023-11-18T01:20:35.215Z,6.77
2023-11-18T01:23:02.157Z,6.76
2023-11-18T01:25:29.112Z,6.76
2023-11-18T01:27:55.841Z,6.73
2023-11-18T01:30:25.152Z,6.64
2023-11-18T01:32:52.416Z,6.68
2023-11-18T01:35:20.816Z,6.69
2023-11-18T01:37:49.510Z,6.64
2023-11-18T01:40:16.893Z,6.68
2023-11-18T01:42:47.854Z,6.68
2023-11-18T01:45:15.434Z,6.75
2023-11-18T01:47:42.440Z,6.71
2023-11-18T01:50:09.836Z,6.75
2023-11-18T01:52:36.949Z,6.76
2023-11-18T01:55:08.166Z,6.79
2023-11-18T01:57:35.585Z,6.76
2023-11-18T02:00:07.628Z,6.82
2023-11-18T02:02:36.273Z,6.85
2023-11-18T02:05:03.745Z,6.89
2023-11-18T02:07:30.638Z,6.87
2023-11-18T02:09:57.778Z,6.90
2023-11-18T02:13:02.440Z,6.85
2023-11-18T02:15:29.520Z,6.76
2023-11-18T02:17:56.465Z,6.80
2023-11-18T02:20:25.037Z,6.75
2023-11-18T02:22:52.111Z,6.77
2023-11-18T02:25:19.770Z,6.75
2023-11-18T02:27:47.361Z,6.73
2023-11-18T02:30:14.721Z,6.72
2023-11-18T02:32:57.906Z,6.71
2023-11-18T02:35:32.331Z,6.65
2023-11-18T02:37:59.748Z,6.61
2023-11-18T02:40:34.138Z,6.64
2023-11-18T02:43:01.916Z,6.55
2023-11-18T02:45:28.707Z,6.56
2023-11-18T02:47:58.926Z,6.53
2023-11-18T02:50:26.694Z,6.59
2023-11-18T02:52:53.609Z,6.56
2023-11-18T02:55:22.396Z,6.50
2023-11-18T02:57:49.180Z,6.46
2023-11-18T03:00:34.519Z,6.46
2023-11-18T03:03:01.724Z,6.45
2023-11-18T03:05:28.539Z,6.45
2023-11-18T03:07:59.538Z,6.44
2023-11-18T03:10:26.695Z,6.44
2023-11-18T03:12:54.853Z,6.50
2023-11-18T03:15:23.066Z,6.50
2023-11-18T03:17:51.820Z,6.50
2023-11-18T03:20:19.303Z,6.46
2023-11-18T03:22:47.102Z,6.39
2023-11-18T03:25:17.331Z,6.38
2023-11-18T03:27:45.651Z,6.31
2023-11-18T03:30:12.861Z,6.25
2023-11-18T03:32:41.405Z,6.24
2023-11-18T03:35:10.764Z,6.20
2023-11-18T03:37:43.019Z,6.14
2023-11-18T03:40:14.705Z,6.04
2023-11-18T03:42:47.660Z,5.96
2023-11-18T03:45:16.762Z,5.93
2023-11-18T03:47:43.793Z,5.85
2023-11-18T03:50:11.560Z,5.76
2023-11-18T03:52:39.489Z,5.63
2023-11-18T03:55:06.787Z,5.52
2023-11-18T03:57:33.720Z,5.45
2023-11-18T04:00:00.659Z,5.39
2023-11-18T04:02:27.819Z,5.36
2023-11-18T04:04:56.116Z,5.35
2023-11-18T04:07:23.643Z,5.32
2023-11-18T04:09:50.802Z,5.36
2023-11-18T04:12:17.607Z,5.39
2023-11-18T04:14:44.396Z,5.32
2023-11-18T04:17:11.634Z,5.36
2023-11-18T04:19:40.406Z,5.32
2023-11-18T04:22:07.376Z,5.30
2023-11-18T04:24:36.467Z,5.30
2023-11-18T04:27:03.638Z,5.31
2023-11-18T04:29:31.434Z,5.25
2023-11-18T04:31:58.771Z,5.21
2023-11-18T04:34:26.319Z,5.17
2023-11-18T04:36:53.200Z,5.10
2023-11-18T04:39:21.749Z,5.00
2023-11-18T04:41:48.639Z,4.95
2023-11-18T04:44:17.687Z,4.90
2023-11-18T04:46:46.129Z,4.76
2023-11-18T04:49:13.079Z,4.67
2023-11-18T04:51:39.948Z,4.55
2023-11-18T04:54:09.260Z,4.53
2023-11-18T04:56:39.162Z,4.49
2023-11-18T04:59:06.772Z,4.48
2023-11-18T05:01:34.334Z,4.41
2023-11-18T05:04:01.606Z,4.38
2023-11-18T05:06:28.783Z,4.35
2023-11-18T05:08:55.982Z,4.31
2023-11-18T05:11:23.364Z,4.25
2023-11-18T05:13:50.759Z,4.24
2023-11-18T05:16:17.766Z,4.17
2023-11-18T05:18:45.270Z,4.17
2023-11-18T05:21:12.625Z,4.17
2023-11-18T05:23:39.864Z,4.11
2023-11-18T05:26:07.416Z,4.07
2023-11-18T05:28:34.849Z,3.99
2023-11-18T05:31:04.961Z,3.97
2023-11-18T05:33:32.939Z,3.94
2023-11-18T05:35:59.923Z,3.94
2023-11-18T05:38:29.208Z,3.95
2023-11-18T05:41:00.726Z,3.91
2023-11-18T05:43:31.155Z,3.93
2023-11-18T05:46:22.214Z,3.87
2023-11-18T05:48:50.076Z,3.81
2023-11-18T05:51:20.612Z,3.76
2023-11-18T05:53:48.338Z,3.70
2023-11-18T05:56:15.514Z,3.74
2023-11-18T05:58:44.705Z,3.74
2023-11-18T06:01:12.417Z,3.76
2023-11-18T06:03:40.670Z,3.76
2023-11-18T06:06:12.521Z,3.80
2023-11-18T06:08:43.040Z,3.81
2023-11-18T06:11:17.108Z,3.80
2023-11-18T06:13:47.924Z,3.76
2023-11-18T06:16:22.220Z,3.77
2023-11-18T06:18:56.045Z,3.71
2023-11-18T06:21:30.144Z,3.64
2023-11-18T06:23:57.379Z,3.57
2023-11-18T06:26:28.307Z,3.52
2023-11-18T06:28:56.078Z,3.53
2023-11-18T06:31:25.485Z,3.53
2023-11-18T06:33:52.627Z,3.49
2023-11-18T06:36:20.775Z,3.49
2023-11-18T06:38:48.343Z,3.49
2023-11-18T06:41:17.963Z,3.43
2023-11-18T06:44:10.702Z,3.43
2023-11-18T06:46:41.800Z,3.36
2023-11-18T06:49:12.646Z,3.38
2023-11-18T06:51:40.350Z,3.36
2023-11-18T06:54:10.677Z,3.33
2023-11-18T06:56:39.390Z,3.32
2023-11-18T06:59:08.160Z,3.33
2023-11-18T07:01:37.307Z,3.33
2023-11-18T07:04:05.270Z,3.35
2023-11-18T07:06:32.531Z,3.36
2023-11-18T07:09:02.443Z,3.33
2023-11-18T07:11:29.226Z,3.28
2023-11-18T07:14:00.594Z,3.23
2023-11-18T07:16:27.871Z,3.23
2023-11-18T07:18:54.793Z,3.26
2023-11-18T07:21:22.275Z,3.26
2023-11-18T07:23:49.151Z,3.25
2023-11-18T07:26:16.278Z,3.29
2023-11-18T07:28:45.294Z,3.32
2023-11-18T07:31:12.576Z,3.30
2023-11-18T07:33:42.017Z,3.33
2023-11-18T07:36:12.543Z,3.36
2023-11-18T07:38:39.575Z,3.38
2023-11-18T07:41:10.017Z,3.40
2023-11-18T07:43:41.806Z,3.43
2023-11-18T07:46:09.630Z,3.43
2023-11-18T07:48:36.730Z,3.42
2023-11-18T07:51:03.727Z,3.42
2023-11-18T07:53:31.101Z,3.36
2023-11-18T07:55:57.999Z,3.32
2023-11-18T07:58:24.884Z,3.33
2023-11-18T08:00:51.986Z,3.36
2023-11-18T08:03:19.043Z,3.39
2023-11-18T08:05:46.361Z,3.38
2023-11-18T08:08:19.043Z,3.35
2023-11-18T08:10:46.256Z,3.36
2023-11-18T08:13:14.762Z,3.43
2023-11-18T08:15:42.719Z,3.48
2023-11-18T08:18:11.736Z,3.49
2023-11-18T08:20:38.922Z,3.49
2023-11-18T08:23:08.509Z,3.55
2023-11-18T08:25:37.318Z,3.59
2023-11-18T08:28:08.430Z,3.63
2023-11-18T08:30:36.022Z,3.63
2023-11-18T08:33:06.613Z,3.69
2023-11-18T08:35:33.963Z,3.67
2023-11-18T08:38:02.158Z,3.70
2023-11-18T08:40:29.323Z,3.71
2023-11-18T08:42:57.493Z,3.77
2023-11-18T08:45:30.360Z,3.78
2023-11-18T08:47:58.195Z,3.76
2023-11-18T08:50:27.138Z,3.77
2023-11-18T08:52:59.659Z,3.81
2023-11-18T08:55:52.349Z,3.87
2023-11-18T08:58:29.709Z,3.93
2023-11-18T09:01:07.610Z,3.94
2023-11-18T09:03:38.123Z,4.01
2023-11-18T09:06:07.504Z,3.98
2023-11-18T09:08:39.908Z,4.02
2023-11-18T09:11:08.070Z,4.01
2023-11-18T09:13:36.462Z,4.05
2023-11-18T09:16:10.597Z,4.08
2023-11-18T09:18:43.066Z,4.09
2023-11-18T09:21:16.678Z,4.11
2023-11-18T09:23:44.550Z,4.05
2023-11-18T09:26:11.982Z,4.11
2023-11-18T09:28:39.518Z,4.11
2023-11-18T09:31:06.663Z,4.18
2023-11-18T09:33:34.249Z,4.38
2023-11-18T09:36:08.578Z,4.46
2023-11-18T09:38:41.552Z,4.50
2023-11-18T09:41:14.899Z,4.57
2023-11-18T09:43:49.519Z,4.52
2023-11-18T09:46:25.766Z,4.59
2023-11-18T09:49:18.395Z,4.66
2023-11-18T09:51:48.246Z,4.67
2023-11-18T09:54:45.520Z,4.70
2023-11-18T09:57:19.771Z,4.85
2023-11-18T10:00:12.103Z,4.91
2023-11-18T10:02:41.600Z,4.93
2023-11-18T10:05:13.727Z,5.00
2023-11-18T10:07:42.511Z,5.21
2023-11-18T10:10:16.095Z,5.22
2023-11-18T10:12:46.832Z,5.21
2023-11-18T10:15:15.816Z,5.15
2023-11-18T10:18:01.096Z,5.13
2023-11-18T10:26:37.527Z,4.93
2023-11-18T10:30:54.008Z,4.94
2023-11-18T10:33:20.902Z,5.08
2023-11-18T10:35:57.164Z,5.25
2023-11-18T10:38:26.746Z,5.48
2023-11-18T10:40:57.705Z,5.60
2023-11-18T10:43:29.994Z,5.56
2023-11-18T10:46:16.293Z,5.49
2023-11-18T10:51:36.111Z,5.14
2023-11-18T10:56:49.078Z,4.76
2023-11-18T10:59:20.071Z,4.67
2023-11-18T11:01:50.710Z,4.48
2023-11-18T11:04:23.752Z,4.50
2023-11-18T11:06:54.516Z,4.57
2023-11-18T11:09:25.947Z,4.57
2023-11-18T11:11:57.227Z,4.59
2023-11-18T11:14:36.716Z,4.60
2023-11-18T11:17:18.657Z,4.74
2023-11-18T11:20:24.470Z,4.87
2023-11-18T11:23:19.442Z,4.77
2023-11-18T11:26:10.503Z,4.52
2023-11-18T11:28:44.644Z,4.44
2023-11-18T11:31:23.624Z,4.42
2023-11-18T11:34:00.094Z,4.34
2023-11-18T11:36:34.674Z,4.18
2023-11-18T11:39:02.271Z,4.08
2023-11-18T11:41:29.056Z,3.90
2023-11-18T11:44:00.230Z,3.78
2023-11-18T11:46:34.294Z,3.69
2023-11-18T11:49:02.727Z,3.67
2023-11-18T11:51:32.955Z,3.70
2023-11-18T11:54:15.955Z,3.67
2023-11-18T11:56:50.568Z,3.60
2023-11-18T11:59:17.774Z,3.48
2023-11-18T12:02:33.983Z,3.39
2023-11-18T12:05:00.992Z,3.33
2023-11-18T12:07:33.414Z,3.26
2023-11-18T12:10:00.881Z,3.18
2023-11-18T12:12:28.321Z,3.11
2023-11-18T12:15:13.635Z,3.11
2023-11-18T12:17:52.766Z,3.12
2023-11-18T12:20:43.982Z,3.21
2023-11-18T12:23:16.963Z,3.25
2023-11-18T12:25:44.191Z,3.26
2023-11-18T12:28:17.655Z,3.49
2023-11-18T12:30:53.448Z,3.66
2023-11-18T12:33:20.989Z,3.71
2023-11-18T12:36:01.058Z,3.59
2023-11-18T12:39:04.932Z,3.46
2023-11-18T12:41:41.527Z,3.57
2023-11-18T12:44:23.588Z,3.78
2023-11-18T12:46:51.165Z,4.07
2023-11-18T12:49:18.475Z,4.48
2023-11-18T12:51:45.225Z,4.35
2023-11-18T12:54:13.312Z,4.45
2023-11-18T12:56:40.324Z,4.76
2023-11-18T12:59:07.826Z,5.28
2023-11-18T13:01:37.548Z,5.69
2023-11-18T13:04:04.804Z,5.43
2023-11-18T13:06:31.714Z,5.69
2023-11-18T13:08:59.414Z,6.14
2023-11-18T13:11:26.354Z,6.07
2023-11-18T13:13:53.388Z,6.17
2023-11-18T13:16:20.396Z,5.99
2023-11-18T13:18:50.617Z,5.74
2023-11-18T13:21:18.084Z,5.94
2023-11-18T13:23:53.863Z,5.66
2023-11-18T13:26:21.205Z,5.18
2023-11-18T13:28:49.637Z,5.00
2023-11-18T13:31:20.321Z,4.76
2023-11-18T13:33:50.465Z,4.50
2023-11-18T13:36:17.742Z,4.62
2023-11-18T13:38:45.357Z,4.25
2023-11-18T13:41:13.051Z,4.09
2023-11-18T13:43:46.857Z,3.84
2023-11-18T13:46:19.571Z,3.53
2023-11-18T13:48:52.697Z,3.26
2023-11-18T13:51:20.785Z,3.13
2023-11-18T13:53:47.930Z,3.01
2023-11-18T13:56:16.805Z,2.92
2023-11-18T13:58:46.713Z,2.79
2023-11-18T14:01:17.443Z,2.68
2023-11-18T14:03:45.317Z,2.56
2023-11-18T14:06:12.288Z,2.53
2023-11-18T14:08:40.232Z,2.50
2023-11-18T14:11:13.367Z,2.49
2023-11-18T14:13:43.237Z,2.46
2023-11-18T14:16:11.688Z,2.43
2023-11-18T14:18:38.661Z,2.42
2023-11-18T14:21:06.992Z,2.32
2023-11-18T14:23:34.069Z,2.30
2023-11-18T14:26:01.079Z,2.26
2023-11-18T14:28:28.859Z,2.25
2023-11-18T14:30:55.799Z,2.23
2023-11-18T14:33:22.677Z,2.19
2023-11-18T14:35:49.945Z,2.19
2023-11-18T14:38:17.218Z,2.16
2023-11-18T14:40:44.170Z,2.16
2023-11-18T14:43:11.109Z,2.11
2023-11-18T14:45:38.701Z,2.09
2023-11-18T14:48:06.601Z,2.06
2023-11-18T14:50:33.701Z,2.08
2023-11-18T14:53:01.441Z,2.06
2023-11-18T14:55:29.357Z,2.05
2023-11-18T14:57:59.141Z,2.04
2023-11-18T15:00:28.395Z,2.02
2023-11-18T15:03:00.377Z,1.99
2023-11-18T15:05:28.904Z,1.95
2023-11-18T15:07:56.531Z,1.91
2023-11-18T15:10:24.783Z,1.89
2023-11-18T15:12:56.117Z,1.85
2023-11-18T15:15:34.012Z,1.85
2023-11-18T15:18:05.766Z,1.84
2023-11-18T15:20:32.889Z,1.85
2023-11-18T15:23:00.122Z,1.85
2023-11-18T15:25:28.254Z,1.84
2023-11-18T15:27:55.328Z,1.86
2023-11-18T15:30:25.869Z,1.86
2023-11-18T15:32:53.395Z,1.85
2023-11-18T15:35:22.467Z,1.84
2023-11-18T15:37:49.950Z,1.79
2023-11-18T15:40:20.995Z,1.81
2023-11-18T15:42:50.085Z,1.84
2023-11-18T15:45:22.608Z,1.84
2023-11-18T15:47:50.217Z,1.84
2023-11-18T15:50:18.283Z,1.85
2023-11-18T15:52:54.397Z,1.81
2023-11-18T15:55:22.557Z,1.79
2023-11-18T15:57:56.549Z,1.78
2023-11-18T16:00:27.449Z,1.78
2023-11-18T16:03:02.155Z,1.79
2023-11-18T16:05:35.637Z,1.77
2023-11-18T16:08:03.742Z,1.78
2023-11-18T16:10:31.661Z,1.78
2023-11-18T16:12:59.408Z,1.81
2023-11-18T16:15:27.588Z,1.82
2023-11-18T16:17:55.572Z,1.84
2023-11-18T16:20:24.589Z,1.79
2023-11-18T16:22:52.543Z,1.82
2023-11-18T16:25:29.154Z,1.84
2023-11-18T16:28:00.426Z,1.81
2023-11-18T16:30:31.241Z,1.84
2023-11-18T16:32:59.184Z,1.85
2023-11-18T16:35:27.236Z,1.86
2023-11-18T16:37:54.792Z,1.85
2023-11-18T16:40:22.387Z,1.81
2023-11-18T16:42:51.940Z,1.81
2023-11-18T16:45:21.233Z,1.82
2023-11-18T16:47:52.228Z,1.82
2023-11-18T16:50:20.513Z,1.79
2023-11-18T16:52:49.087Z,1.78
2023-11-18T16:55:16.504Z,1.75
2023-11-18T16:57:43.487Z,1.74
2023-11-18T17:00:17.950Z,1.78
2023-11-18T17:02:59.426Z,1.77
2023-11-18T17:05:29.710Z,1.73
2023-11-18T17:07:57.087Z,1.71
2023-11-18T17:10:24.434Z,1.75
2023-11-18T17:12:52.595Z,1.75
2023-11-18T17:15:20.157Z,1.71
2023-11-18T17:17:48.438Z,1.71
2023-11-18T17:20:16.291Z,1.70
2023-11-18T17:22:43.899Z,1.68
2023-11-18T17:25:14.602Z,1.65
2023-11-18T17:27:41.948Z,1.67
2023-11-18T17:30:19.694Z,1.65
2023-11-18T17:32:48.389Z,1.65
2023-11-18T17:35:20.125Z,1.68
2023-11-18T17:37:47.795Z,1.65
2023-11-18T17:40:24.738Z,1.65
2023-11-18T17:42:55.171Z,1.67
2023-11-18T17:45:22.574Z,1.68
2023-11-18T17:47:49.809Z,1.68
2023-11-18T17:50:18.824Z,1.65
2023-11-18T17:52:48.105Z,1.65
2023-11-18T17:55:16.333Z,1.63
2023-11-18T17:57:43.829Z,1.63
2023-11-18T18:00:14.426Z,1.64
2023-11-18T18:02:42.455Z,1.64
2023-11-18T18:05:10.160Z,1.63
2023-11-18T18:07:37.535Z,1.64
2023-11-18T18:10:05.141Z,1.68
2023-11-18T18:12:32.929Z,1.65
2023-11-18T18:14:59.854Z,1.68
2023-11-18T18:17:27.532Z,1.65
2023-11-18T18:19:54.738Z,1.67
2023-11-18T18:22:21.704Z,1.61
2023-11-18T18:24:48.762Z,1.64
2023-11-18T18:27:15.615Z,1.65
2023-11-18T18:29:42.534Z,1.65
2023-11-18T18:32:11.825Z,1.58
2023-11-18T18:34:38.900Z,1.56
2023-11-18T18:37:05.965Z,1.54
2023-11-18T18:39:32.923Z,1.54
2023-11-18T18:42:00.405Z,1.54
2023-11-18T18:44:28.209Z,1.50
2023-11-18T18:46:55.817Z,1.47
2023-11-18T18:49:22.731Z,1.44
2023-11-18T18:51:49.928Z,1.40
2023-11-18T18:54:16.874Z,1.40
2023-11-18T18:56:44.120Z,1.37
2023-11-18T18:59:12.651Z,1.35
2023-11-18T19:01:40.799Z,1.35
2023-11-18T19:04:09.453Z,1.32
2023-11-18T19:06:37.391Z,1.29
2023-11-18T19:09:05.381Z,1.25
2023-11-18T19:11:32.694Z,1.22
2023-11-18T19:14:00.162Z,1.22
2023-11-18T19:16:27.629Z,1.22
2023-11-18T19:18:56.976Z,1.25
2023-11-18T19:21:29.710Z,1.19
2023-11-18T19:23:57.647Z,1.16
2023-11-18T19:26:24.789Z,1.17
2023-11-18T19:28:51.802Z,1.15
2023-11-18T19:31:18.795Z,1.17
2023-11-18T19:33:45.896Z,1.16
2023-11-18T19:36:13.188Z,1.15
2023-11-18T19:38:40.446Z,1.16
2023-11-18T19:41:07.733Z,1.13
2023-11-18T19:43:34.784Z,1.15
2023-11-18T19:46:02.133Z,1.15
2023-11-18T19:48:32.799Z,1.12
2023-11-18T19:51:00.031Z,1.13
2023-11-18T19:53:27.496Z,1.08
2023-11-18T19:55:54.614Z,1.09
2023-11-18T19:58:23.502Z,1.09
2023-11-18T20:00:54.068Z,1.10
2023-11-18T20:03:23.812Z,1.10
2023-11-18T20:05:51.237Z,1.09
2023-11-18T20:08:21.026Z,1.05
2023-11-18T20:10:48.646Z,1.05
2023-11-18T20:13:16.346Z,1.10
2023-11-18T20:15:43.285Z,1.10
2023-11-18T20:18:13.178Z,1.15
2023-11-18T20:20:40.282Z,1.15
2023-11-18T20:23:07.555Z,1.15
2023-11-18T20:25:36.246Z,1.12
2023-11-18T20:28:04.627Z,1.12
2023-11-18T20:30:31.779Z,1.10
2023-11-18T20:32:58.998Z,1.05
2023-11-18T20:35:26.484Z,1.10
2023-11-18T20:37:53.591Z,1.10
2023-11-18T20:40:23.378Z,1.08
2023-11-18T20:42:51.156Z,1.06
2023-11-18T20:45:19.982Z,1.05
2023-11-18T20:47:48.331Z,1.09
2023-11-18T20:50:15.982Z,1.08
2023-11-18T20:52:43.434Z,1.12
2023-11-18T20:55:10.602Z,1.13
2023-11-18T20:57:40.725Z,1.12
2023-11-18T21:00:09.998Z,1.12
2023-11-18T21:02:39.724Z,1.12
2023-11-18T21:05:09.432Z,1.10
2023-11-18T21:07:36.613Z,1.09
2023-11-18T21:10:06.039Z,1.12
2023-11-18T21:12:33.817Z,1.12
2023-11-18T21:15:03.249Z,1.12
2023-11-18T21:17:30.530Z,1.13
2023-11-18T21:19:57.973Z,1.16
2023-11-18T21:22:24.865Z,1.16
2023-11-18T21:24:52.271Z,1.15
2023-11-18T21:27:19.237Z,1.13
2023-11-18T21:29:47.343Z,1.16
2023-11-18T21:32:14.584Z,1.16
2023-11-18T21:34:42.225Z,1.19
2023-11-18T21:37:12.344Z,1.17
2023-11-18T21:39:42.480Z,1.17
2023-11-18T21:42:09.938Z,1.17
2023-11-18T21:44:36.900Z,1.17
2023-11-18T21:47:04.371Z,1.22
2023-11-18T21:49:31.520Z,1.20
2023-11-18T21:51:58.619Z,1.19
2023-11-18T21:54:26.378Z,1.19
2023-11-18T21:56:53.451Z,1.25
2023-11-18T21:59:20.256Z,1.25
2023-11-18T22:01:47.148Z,1.27
2023-11-18T22:04:14.272Z,1.26
2023-11-18T22:06:41.082Z,1.26
2023-11-18T22:09:08.505Z,1.32
2023-11-18T22:11:37.751Z,1.35
2023-11-18T22:14:04.793Z,1.36
2023-11-18T22:16:31.604Z,1.36
2023-11-18T22:18:59.272Z,1.36
2023-11-18T22:21:28.382Z,1.36
2023-11-18T22:23:55.090Z,1.36
2023-11-18T22:26:23.278Z,1.37
2023-11-18T22:28:50.363Z,1.39
2023-11-18T22:31:18.027Z,1.39
2023-11-18T22:33:44.891Z,1.39
2023-11-18T22:36:11.617Z,1.37
2023-11-18T22:38:39.387Z,1.37
2023-11-18T22:41:08.894Z,1.36
2023-11-18T22:43:35.659Z,1.39
2023-11-18T22:46:02.970Z,1.36
2023-11-18T22:48:29.973Z,1.40
2023-11-18T22:50:57.057Z,1.43
2023-11-18T22:53:23.833Z,1.43
2023-11-18T22:55:52.191Z,1.47
2023-11-18T22:58:19.100Z,1.44
2023-11-18T23:00:52.865Z,1.47
2023-11-18T23:03:20.284Z,1.51
2023-11-18T23:05:47.585Z,1.51
2023-11-18T23:08:23.457Z,1.51
2023-11-18T23:10:50.750Z,1.51
2023-11-18T23:13:19.511Z,1.51
2023-11-18T23:15:47.900Z,1.50
2023-11-18T23:18:15.832Z,1.48
2023-11-18T23:20:42.669Z,1.46
2023-11-18T23:23:09.574Z,1.44
2023-11-18T23:25:36.712Z,1.39
2023-11-18T23:28:06.224Z,1.43
2023-11-18T23:30:33.161Z,1.36
2023-11-18T23:33:00.064Z,1.37
2023-11-18T23:35:29.497Z,1.33
2023-11-18T23:37:57.388Z,1.32
2023-11-18T23:40:24.460Z,1.27
2023-11-18T23:42:52.093Z,1.25
2023-11-18T23:45:20.094Z,1.26
2023-11-18T23:47:51.982Z,1.25
2023-11-18T23:50:19.521Z,1.20
2023-11-18T23:52:46.263Z,1.20
2023-11-18T23:55:16.553Z,1.20
2023-11-18T23:57:43.570Z,1.17
